Time;durP1;ratioP1;P1;durP2;ratioP2;P2;SDS_P1;SDS_P2;PMS_P1;PMS_P2;Temp;Humidity;BMP_temperature;BMP_pressure;BME280_temperature;BME280_humidity;BME280_pressure;Samples;Min_cycle;Max_cycle;Signal;HPM_P1;HPM_P2
2021/06/13 00:01:04;;;;;;;;;;;;;;;;;;;;;
2021/06/13 00:04:09;;;;;;;9.40;6.38;;;;;;;20.29;41.17;93044.09;5071554;28;20044;-91
2021/06/13 00:11:17;;;;;;;;;;;;;;;;;;;;;
2021/06/13 00:18:21;;;;;;;;;;;;;;;;;;;;;
2021/06/13 00:29:01;;;;;;;8.45;5.57;;;;;;;20.25;41.42;93047.75;5046250;28;20394;-92
2021/06/13 00:32:15;;;;;;;13.05;5.75;;;;;;;19.89;41.23;93002.22;5028074;28;20144;-91
2021/06/13 00:35:21;;;;;;;11.25;5.55;;;;;;;20.23;41.17;93055.28;5041840;28;20066;-91
2021/06/13 00:52:03;;;;;;;7.68;4.80;;;;;;;20.21;40.38;93015.72;5034158;28;20057;-92
2021/06/13 00:55:11;;;;;;;7.65;4.60;;;;;;;20.15;40.63;93014.41;5038353;28;20053;-92
2021/06/13 00:58:34;;;;;;;6.83;4.47;;;;;;;20.03;41.07;92991.25;5033500;28;20049;-91
2021/06/13 01:01:20;;;;;;;8.00;4.43;;;;;;;20.21;41.39;93041.53;5028717;28;20049;-90
2021/06/13 01:04:45;;;;;;;8.45;5.10;;;;;;;19.82;40.72;92983.41;5016836;28;20097;-91
2021/06/13 01:08:32;;;;;;;7.60;4.40;;;;;;;20.20;40.90;93035.47;5043319;28;20079;-90
2021/06/13 01:12:09;;;;;;;;;;;;;;;;;;;;;
2021/06/13 01:15:11;;;;;;;7.05;4.45;;;;;;;20.14;41.15;93032.22;5047835;28;19917;-90
2021/06/13 01:18:55;;;;;;;7.05;4.43;;;;;;;19.84;40.86;92975.88;5004795;28;20057;-90
2021/06/13 01:22:14;;;;;;;7.72;4.70;;;;;;;20.17;40.39;93022.81;4966838;28;20587;-91
2021/06/13 01:29:18;;;;;;;9.70;4.45;;;;;;;20.18;40.99;93011.09;5030780;28;20041;-90
2021/06/13 01:32:39;;;;;;;7.07;4.15;;;;;;;19.86;40.96;92951.63;5032985;28;20042;-92
2021/06/13 01:35:58;;;;;;;6.65;4.28;;;;;;;19.86;40.75;92957.72;5037681;28;20041;-90
2021/06/13 01:39:02;;;;;;;7.78;4.28;;;;;;;19.85;40.76;92944.78;5038180;28;20051;-91
2021/06/13 01:42:47;;;;;;;6.30;3.80;;;;;;;19.86;39.62;92949.75;5055677;28;20039;-91
2021/06/13 01:46:09;;;;;;;9.70;4.18;;;;;;;20.27;40.03;92993.16;5035748;28;20042;-90
2021/06/13 01:49:11;;;;;;;;;;;;;;;;;;;;;
2021/06/13 01:52:28;;;;;;;;;;;;;;;;;;;;;
2021/06/13 01:58:55;;;;;;;7.38;3.85;;;;;;;19.90;40.20;92933.91;5042803;28;20140;-92
2021/06/13 02:02:04;;;;;;;9.30;3.80;;;;;;;19.87;40.68;92934.59;5026392;28;20041;-90
2021/06/13 02:08:35;;;;;;;;;;;;;;;;;;;;;
2021/06/13 02:11:46;;;;;;;;;;;;;;;;;;;;;
2021/06/13 02:15:07;;;;;;;7.18;3.55;;;;;;;19.90;40.61;92942.66;5071319;28;20071;-91
2021/06/13 02:18:20;;;;;;;7.50;3.90;;;;;;;19.79;40.65;92938.13;5018235;28;20041;-90
2021/06/13 02:21:57;;;;;;;;;;;;;;;;;;;;;
2021/06/13 02:24:38;;;;;;;5.28;3.58;;;;;;;19.80;41.07;92934.38;5037695;28;20055;-92
2021/06/13 02:27:56;;;;;;;6.53;3.70;;;;;;;19.76;40.99;92937.69;5022662;28;20029;-90
2021/06/13 02:31:23;;;;;;;5.93;3.47;;;;;;;19.79;41.60;92957.50;5022961;28;20045;-90
2021/06/13 02:35:04;;;;;;;;;;;;;;;;;;;;;
2021/06/13 02:38:14;;;;;;;13.35;3.47;;;;;;;19.58;41.61;92938.22;5055088;28;20044;-91
2021/06/13 02:41:12;;;;;;;5.30;3.33;;;;;;;19.48;41.79;92934.88;5020723;28;20044;-90
2021/06/13 02:44:48;;;;;;;5.75;3.30;;;;;;;19.58;41.88;92954.91;5073344;28;20072;-91
2021/06/13 02:48:07;;;;;;;9.48;3.58;;;;;;;19.66;40.98;92953.28;5039933;28;20516;-91
2021/06/13 02:50:59;;;;;;;5.10;3.30;;;;;;;19.48;41.58;92932.22;5065093;28;20041;-92
2021/06/13 02:54:11;;;;;;;5.75;3.70;;;;;;;19.48;41.88;92944.72;5040338;28;20062;-91
2021/06/13 02:57:17;;;;;;;;;;;;;;;;;;;;;
2021/06/13 03:01:12;;;;;;;6.13;3.35;;;;;;;19.60;41.68;92968.63;5046298;28;20132;-90
2021/06/13 03:11:17;;;;;;;5.18;3.05;;;;;;;19.73;40.92;92964.91;5013798;28;20065;-90
2021/06/13 03:18:13;;;;;;;5.78;3.25;;;;;;;19.56;40.71;92943.84;5002500;28;20038;-91
2021/06/13 03:21:27;;;;;;;;;;;;;;;;;;;;;
2021/06/13 03:24:30;;;;;;;;;;;;;;;;;;;;;
2021/06/13 03:27:48;;;;;;;8.23;3.00;;;;;;;19.69;40.86;92985.25;4992541;28;20489;-91
2021/06/13 03:31:25;;;;;;;;;;;;;;;;;;;;;
2021/06/13 03:34:45;;;;;;;;;;;;;;;;;;;;;
2021/06/13 03:41:25;;;;;;;6.45;3.00;;;;;;;19.38;41.67;92963.72;4991881;28;20046;-91
2021/06/13 03:44:33;;;;;;;6.63;2.85;;;;;;;19.13;42.09;92931.81;4971024;28;20042;-91
2021/06/13 03:47:42;;;;;;;;;;;;;;;;;;;;;
2021/06/13 03:51:29;;;;;;;;;;;;;;;;;;;;;
2021/06/13 03:57:22;;;;;;;6.90;2.88;;;;;;;19.19;42.09;92921.78;4962537;28;20038;-90
2021/06/13 04:00:23;;;;;;;5.85;2.85;;;;;;;19.27;41.00;92932.31;4992429;28;20050;-90
2021/06/13 04:03:44;;;;;;;9.77;2.88;;;;;;;19.56;41.48;92965.84;5060698;28;20046;-90
2021/06/13 04:07:22;;;;;;;;;;;;;;;;;;;;;
2021/06/13 04:10:47;;;;;;;;;;;;;;;;;;;;;
2021/06/13 04:13:57;;;;;;;;;;;;;;;;;;;;;
2021/06/13 04:17:06;;;;;;;11.02;2.72;;;;;;;19.35;41.38;92944.69;5010853;28;20133;-91
2021/06/13 04:20:25;;;;;;;;;;;;;;;;;;;;;
2021/06/13 04:23:09;;;;;;;5.53;2.75;;;;;;;19.32;41.86;92940.06;4992347;28;20038;-90
2021/06/13 04:29:50;;;;;;;8.23;2.83;;;;;;;19.66;42.16;92996.53;5057428;28;20084;-91
2021/06/13 04:32:57;;;;;;;;;;;;;;;;;;;;;
2021/06/13 04:39:21;;;;;;;8.18;2.90;;;;;;;19.61;42.60;92967.53;5003721;28;20050;-91
2021/06/13 04:42:47;;;;;;;;;;;;;;;;;;;;;
2021/06/13 04:46:13;;;;;;;;;;;;;;;;;;;;;
2021/06/13 04:49:28;;;;;;;5.50;2.58;;;;;;;19.90;41.68;93009.06;5010979;28;20096;-91
2021/06/13 04:53:09;;;;;;;4.38;2.50;;;;;;;19.75;41.61;92972.56;4980125;28;20140;-91
2021/06/13 04:56:23;;;;;;;6.90;2.63;;;;;;;19.76;42.14;92969.56;4988518;28;20060;-91
2021/06/13 04:59:52;;;;;;;4.93;2.85;;;;;;;19.92;41.96;92988.25;4936741;28;20665;-91
2021/06/13 05:03:12;;;;;;;;;;;;;;;;;;;;;
2021/06/13 05:05:57;;;;;;;5.18;2.80;;;;;;;20.14;41.86;92999.56;4952865;28;20043;-91
2021/06/13 05:09:18;;;;;;;7.13;3.00;;;;;;;20.33;41.25;93017.59;4954791;28;20042;-90
2021/06/13 05:12:29;;;;;;;4.90;2.90;;;;;;;20.35;40.96;93010.88;4935478;29;20523;-91
2021/06/13 05:15:35;;;;;;;;;;;;;;;;;;;;;
2021/06/13 05:19:09;;;;;;;;;;;;;;;;;;;;;
2021/06/13 05:22:22;;;;;;;;;;;;;;;;;;;;;
2021/06/13 05:29:30;;;;;;;5.68;2.95;;;;;;;20.47;42.38;92980.06;4992250;28;20057;-92
2021/06/13 05:43:35;;;;;;;4.45;2.70;;;;;;;21.30;42.01;92981.22;5027043;28;20414;-91
2021/06/13 05:46:42;;;;;;;;;;;;;;;;;;;;;
2021/06/13 05:52:54;;;;;;;9.05;3.10;;;;;;;28.82;27.18;93005.00;5008954;28;20038;-92
2021/06/13 05:56:34;;;;;;;;;;;;;;;;;;;;;
2021/06/13 05:59:30;;;;;;;4.88;2.55;;;;;;;29.83;24.99;93013.47;4987309;28;20053;-92
2021/06/13 06:03:15;;;;;;;6.22;2.58;;;;;;;30.63;25.31;93024.47;4976157;28;20075;-91
2021/06/13 06:06:15;;;;;;;5.53;2.95;;;;;;;32.36;23.13;92997.66;4991168;28;20038;-93
2021/06/13 06:12:37;;;;;;;;;;;;;;;;;;;;;
2021/06/13 06:19:30;;;;;;;;;;;;;;;;;;;;;
2021/06/13 06:22:51;;;;;;;4.43;2.33;;;;;;;33.94;20.83;92978.41;4945020;28;20047;-92
2021/06/13 06:26:02;;;;;;;;;;;;;;;;;;;;;
2021/06/13 06:33:30;;;;;;;6.38;2.50;;;;;;;33.22;21.84;93011.66;4959447;28;20035;-92
2021/06/13 06:37:21;;;;;;;;;;;;;;;;;;;;;
2021/06/13 06:41:00;;;;;;;;;;;;;;;;;;;;;
2021/06/13 06:44:15;;;;;;;;;;;;;;;;;;;;;
2021/06/13 06:47:27;;;;;;;;;;;;;;;;;;;;;
2021/06/13 06:50:19;;;;;;;5.00;2.33;;;;;;;26.25;30.76;92986.94;4973687;28;20081;-91
2021/06/13 06:53:13;;;;;;;4.05;2.30;;;;;;;25.92;31.23;93004.72;4956922;28;20049;-92
2021/06/13 06:56:17;;;;;;;4.13;2.35;;;;;;;25.18;31.91;93020.75;4975428;28;20119;-90
2021/06/13 07:00:24;;;;;;;;;;;;;;;;;;;;;
2021/06/13 07:03:25;;;;;;;;;;;;;;;;;;;;;
2021/06/13 07:10:18;;;;;;;;;;;;;;;;;;;;;
2021/06/13 07:24:29;;;;;;;7.03;2.30;;;;;;;25.22;31.82;92981.38;4930813;29;20578;-92
2021/06/13 07:35:28;;;;;;;;;;;;;;;;;;;;;
2021/06/13 07:38:43;;;;;;;4.15;2.10;;;;;;;26.35;30.95;93029.22;4951558;28;20051;-91
2021/06/13 07:53:35;;;;;;;;;;;;;;;;;;;;;
2021/06/13 08:00:56;;;;;;;;;;;;;;;;;;;;;
2021/06/13 08:04:44;;;;;;;4.18;2.30;;;;;;;25.94;31.62;93026.56;5007595;28;20046;-91
2021/06/13 08:08:23;;;;;;;;;;;;;;;;;;;;;
2021/06/13 08:15:44;;;;;;;4.30;2.05;;;;;;;25.61;30.36;92997.13;5034690;28;20512;-91
2021/06/13 08:22:41;;;;;;;3.97;2.30;;;;;;;26.05;29.89;92950.78;5075600;28;20388;-90
2021/06/13 08:26:22;;;;;;;;;;;;;;;;;;;;;
2021/06/13 08:29:40;;;;;;;4.18;2.22;;;;;;;26.70;32.08;93006.44;5059570;28;20107;-92
2021/06/13 08:36:30;;;;;;;4.70;2.15;;;;;;;26.81;29.28;92957.41;5049855;28;20497;-91
2021/06/13 08:46:34;;;;;;;;;;;;;;;;;;;;;
2021/06/13 08:50:14;;;;;;;;;;;;;;;;;;;;;
2021/06/13 09:05:29;;;;;;;;;;;;;;;;;;;;;
2021/06/13 09:13:02;;;;;;;;;;;;;;;;;;;;;
2021/06/13 09:32:52;;;;;;;;;;;;;;;;;;;;;
2021/06/13 09:36:38;;;;;;;3.50;1.90;;;;;;;27.22;27.37;92928.41;5010226;28;20546;-91
2021/06/13 10:22:21;;;;;;;3.63;1.90;;;;;;;28.22;26.77;92925.84;4976572;28;20046;-94
2021/06/13 10:29:26;;;;;;;;;;;;;;;;;;;;;
2021/06/13 10:52:31;;;;;;;;;;;;;;;;;;;;;
2021/06/13 10:56:01;;;;;;;4.00;1.83;;;;;;;28.48;26.18;92915.03;4955612;28;20038;-94
2021/06/13 10:59:43;;;;;;;;;;;;;;;;;;;;;
2021/06/13 11:02:56;;;;;;;;;;;;;;;;;;;;;
2021/06/13 11:06:24;;;;;;;8.55;4.38;;;;;;;28.96;25.96;92960.31;4974615;28;20069;-95
2021/06/13 11:10:12;;;;;;;;;;;;;;;;;;;;;
2021/06/13 11:56:57;;;;;;;;;;;;;;;;;;;;;
2021/06/13 12:04:20;;;;;;;3.70;1.70;;;;;;;30.05;25.15;92895.34;4992044;28;20045;-92
2021/06/13 12:07:56;;;;;;;;;;;;;;;;;;;;;
2021/06/13 12:23:50;;;;;;;;;;;;;;;;;;;;;
2021/06/13 12:51:08;;;;;;;4.43;1.80;;;;;;;31.03;22.83;92901.31;4859013;29;20092;-94
2021/06/13 12:54:03;;;;;;;3.95;2.10;;;;;;;30.00;23.01;92843.75;4854008;29;20053;-91
2021/06/13 12:57:03;;;;;;;;;;;;;;;;;;;;;
2021/06/13 13:00:29;;;;;;;5.50;1.77;;;;;;;30.46;26.97;92848.69;4945288;28;20457;-90
2021/06/13 13:03:43;;;;;;;3.53;1.75;;;;;;;29.98;23.76;92867.66;4933168;28;20053;-93
2021/06/13 13:07:30;;;;;;;6.13;1.70;;;;;;;30.10;23.61;92842.88;4968700;28;20038;-92
2021/06/13 13:15:45;;;;;;;;;;;;;;;;;;;;;
2021/06/13 13:26:20;;;;;;;;;;;;;;;;;;;;;
2021/06/13 14:42:13;;;;;;;;;;;;;;;;;;;;;
2021/06/13 15:57:05;;;;;;;;;;;;;;;;;;;;;
2021/06/13 16:00:47;;;;;;;54.83;28.93;;;;;;;31.20;21.51;92860.94;5062061;28;20120;-94
2021/06/13 16:04:12;;;;;;;;;;;;;;;31.20;22.88;92867.09;4983211;28;20038;-93
2021/06/13 16:07:16;;;;;;;4.38;1.92;;;;;;;30.77;22.59;92824.41;5054337;28;19920;-96
2021/06/13 16:14:32;;;;;;;212.63;94.82;;;;;;;31.12;21.76;92854.88;4988845;28;20098;-95
2021/06/13 16:18:08;;;;;;;;;;;;;;;;;;;;;
2021/06/13 16:40:57;;;;;;;12.27;6.03;;;;;;;30.18;22.93;92833.53;4895486;29;20172;-93
2021/06/13 16:48:10;;;;;;;;;;;;;;;;;;;;;
2021/06/13 16:54:52;;;;;;;;;;;;;;;;;;;;;
2021/06/13 17:01:21;;;;;;;3.40;2.00;;;;;;;30.65;23.13;92877.03;4924448;22;20052;-76
2021/06/13 17:03:47;;;;;;;5.03;2.35;;;;;;;30.82;23.56;92869.13;4979940;28;20050;-76
2021/06/13 17:06:13;;;;;;;4.78;2.20;;;;;;;30.67;23.07;92880.09;4992815;28;20046;-76
2021/06/13 17:08:38;;;;;;;4.07;2.15;;;;;;;30.29;23.08;92873.97;4982120;28;20042;-76
2021/06/13 17:11:04;;;;;;;4.28;2.10;;;;;;;30.13;24.12;92877.16;4953535;28;20465;-76
2021/06/13 17:13:30;;;;;;;5.00;2.13;;;;;;;30.11;23.92;92882.19;4993798;28;20050;-76
2021/06/13 17:15:55;;;;;;;8.93;2.35;;;;;;;29.72;23.97;92883.28;4983186;28;20062;-77
2021/06/13 17:18:22;;;;;;;5.40;2.17;;;;;;;29.69;23.91;92889.47;4993631;28;20046;-76
2021/06/13 17:20:47;;;;;;;3.78;2.20;;;;;;;29.58;25.25;92877.97;5003696;28;20612;-75
2021/06/13 17:25:42;;;;;;;5.63;2.45;;;;;;;29.56;24.81;92880.28;5005369;28;20046;-75
2021/06/13 17:28:08;;;;;;;3.47;2.25;;;;;;;29.50;24.99;92885.34;4993471;28;20034;-76
2021/06/13 17:30:35;;;;;;;6.72;2.20;;;;;;;29.32;25.99;92888.16;4999710;28;20125;-75
2021/06/13 17:33:01;;;;;;;9.32;2.30;;;;;;;29.20;25.31;92894.00;5002719;28;20503;-77
2021/06/13 17:35:27;;;;;;;3.40;2.00;;;;;;;29.03;24.55;92895.63;4984547;28;20133;-76
2021/06/13 17:37:56;;;;;;;3.50;2.00;;;;;;;28.99;25.22;92889.47;4983822;28;20045;-76
2021/06/13 17:40:23;;;;;;;3.97;2.28;;;;;;;28.78;25.70;92883.03;4995852;28;20067;-76
2021/06/13 17:42:50;;;;;;;5.68;2.25;;;;;;;28.56;25.91;92886.94;4976616;28;20440;-75
2021/06/13 17:45:16;;;;;;;6.55;2.20;;;;;;;28.43;26.11;92887.31;5003277;28;20069;-78
2021/06/13 17:47:43;;;;;;;5.13;2.47;;;;;;;28.25;25.85;92889.31;4977072;28;20039;-75
2021/06/13 17:50:09;;;;;;;5.10;2.80;;;;;;;28.10;27.10;92885.09;4978301;28;20125;-75
2021/06/13 17:52:35;;;;;;;5.78;2.22;;;;;;;27.89;26.17;92889.34;4985013;28;20207;-75
2021/06/13 17:55:03;;;;;;;6.15;3.17;;;;;;;27.87;27.10;92888.97;5007248;28;20032;-75
2021/06/13 17:57:29;;;;;;;4.05;2.20;;;;;;;27.84;27.42;92889.75;5002944;28;20050;-75
2021/06/13 17:59:55;;;;;;;8.55;2.30;;;;;;;27.64;27.63;92899.31;4998099;28;20466;-76
2021/06/13 18:02:22;;;;;;;5.13;2.53;;;;;;;27.61;27.89;92898.94;5008286;28;20056;-75
2021/06/13 18:04:48;;;;;;;6.68;2.40;;;;;;;27.53;27.61;92897.38;4993056;28;20051;-75
2021/06/13 18:07:17;;;;;;;8.07;3.50;;;;;;;27.38;27.89;92893.13;4995706;28;20095;-75
2021/06/13 18:09:42;;;;;;;3.95;2.13;;;;;;;27.31;27.81;92899.28;4979633;28;20056;-75
2021/06/13 18:12:09;;;;;;;8.73;2.45;;;;;;;27.18;28.15;92893.47;4978799;28;20054;-75
2021/06/13 18:14:35;;;;;;;4.55;2.40;;;;;;;27.07;28.67;92897.28;4976303;28;20038;-76
2021/06/13 18:17:00;;;;;;;7.40;2.40;;;;;;;26.91;28.69;92898.38;4966558;28;20058;-77
2021/06/13 18:19:27;;;;;;;6.00;2.60;;;;;;;26.74;29.05;92894.47;5002914;28;20046;-76
2021/06/13 18:21:52;;;;;;;6.60;2.10;;;;;;;26.59;28.83;92895.56;5003748;28;20046;-77
2021/06/13 18:24:18;;;;;;;5.50;2.10;;;;;;;26.46;29.28;92899.69;4984111;28;20259;-76
2021/06/13 18:26:45;;;;;;;4.43;2.45;;;;;;;26.33;28.96;92897.31;4984276;28;20043;-76
2021/06/13 18:29:11;;;;;;;4.53;2.33;;;;;;;26.21;29.42;92908.38;4973138;28;20061;-76
2021/06/13 18:31:39;;;;;;;6.18;2.40;;;;;;;26.12;29.99;92900.66;4981085;28;20058;-76
2021/06/13 18:34:04;;;;;;;3.17;2.03;;;;;;;25.99;30.13;92904.78;4983843;28;20050;-76
2021/06/13 18:36:31;;;;;;;6.20;2.15;;;;;;;25.82;30.04;92900.78;4998835;28;20068;-75
2021/06/13 18:38:56;;;;;;;4.85;2.30;;;;;;;25.74;29.86;92909.94;4974461;28;20294;-76
2021/06/13 18:41:24;;;;;;;6.65;2.47;;;;;;;25.63;30.00;92912.50;4996699;28;20157;-76
2021/06/13 18:43:50;;;;;;;6.10;2.60;;;;;;;25.58;30.27;92922.78;4999650;28;20045;-76
2021/06/13 18:46:18;;;;;;;4.43;2.33;;;;;;;25.52;29.82;92917.00;4971716;28;20068;-76
2021/06/13 18:48:44;;;;;;;4.13;2.25;;;;;;;25.43;30.16;92925.34;4996347;28;20083;-76
2021/06/13 18:51:13;;;;;;;4.72;2.53;;;;;;;25.35;30.56;92918.38;4987879;28;20050;-76
2021/06/13 18:53:39;;;;;;;5.60;2.40;;;;;;;25.26;30.53;92917.91;4987884;28;20046;-76
2021/06/13 18:56:05;;;;;;;3.65;2.22;;;;;;;25.16;30.81;92913.19;4979259;28;20050;-76
2021/06/13 18:58:31;;;;;;;4.85;2.17;;;;;;;25.12;30.67;92923.84;4998572;28;20045;-76
2021/06/13 19:00:58;;;;;;;9.95;2.42;;;;;;;25.04;30.98;92925.69;5000404;28;20072;-76
2021/06/13 19:03:24;;;;;;;5.25;2.40;;;;;;;24.90;30.72;92914.81;4999629;28;20131;-76
2021/06/13 19:05:50;;;;;;;3.85;2.30;;;;;;;24.87;31.24;92932.38;4997762;28;20046;-76
2021/06/13 19:08:15;;;;;;;7.13;2.50;;;;;;;24.77;31.63;92922.34;4999051;28;20492;-76
2021/06/13 19:10:41;;;;;;;6.10;2.28;;;;;;;24.70;31.18;92919.53;5001230;28;20332;-76
2021/06/13 19:13:08;;;;;;;4.53;2.42;;;;;;;24.62;31.58;92923.28;4985700;28;20106;-76
2021/06/13 19:15:35;;;;;;;9.73;2.47;;;;;;;24.54;31.31;92927.75;4999070;28;20140;-75
2021/06/13 19:18:04;;;;;;;4.07;2.47;;;;;;;24.53;30.92;92915.53;4998812;28;20052;-75
2021/06/13 19:20:30;;;;;;;4.63;2.50;;;;;;;24.49;31.00;92925.41;5000802;28;20133;-75
2021/06/13 19:22:57;;;;;;;6.40;2.30;;;;;;;24.49;31.04;92922.72;5003782;28;20046;-75
2021/06/13 19:25:23;;;;;;;3.78;2.20;;;;;;;24.44;31.14;92929.16;5020722;28;20081;-76
2021/06/13 19:27:50;;;;;;;4.75;2.50;;;;;;;24.44;30.86;92921.13;5002931;28;20084;-76
2021/06/13 19:30:18;;;;;;;5.82;2.70;;;;;;;24.44;30.83;92934.50;4980753;28;20050;-76
2021/06/13 19:32:44;;;;;;;8.68;2.67;;;;;;;24.44;30.82;92933.72;4968528;28;20046;-76
2021/06/13 19:35:11;;;;;;;4.00;2.40;;;;;;;24.38;30.55;92933.25;4997742;28;20503;-76
2021/06/13 19:37:36;;;;;;;5.70;2.60;;;;;;;24.31;30.67;92935.84;5001573;28;20054;-76
2021/06/13 19:40:03;;;;;;;4.15;2.30;;;;;;;24.18;30.80;92932.59;4999798;28;20042;-76
2021/06/13 19:42:29;;;;;;;5.60;3.03;;;;;;;24.14;30.82;92942.50;4998248;28;20141;-76
2021/06/13 19:44:54;;;;;;;5.45;2.47;;;;;;;24.11;30.72;92951.22;4998079;28;20052;-76
2021/06/13 19:47:20;;;;;;;5.13;2.55;;;;;;;24.05;30.57;92945.41;4994335;28;20503;-76
2021/06/13 19:49:46;;;;;;;5.07;2.55;;;;;;;24.04;30.95;92948.44;5007643;28;20484;-76
2021/06/13 19:52:11;;;;;;;4.50;2.63;;;;;;;23.98;31.05;92944.53;4988120;28;20041;-76
2021/06/13 19:54:37;;;;;;;3.90;2.28;;;;;;;23.94;30.86;92954.41;5004469;28;20042;-77
2021/06/13 19:57:03;;;;;;;6.63;3.10;;;;;;;23.92;30.81;92959.34;5008294;28;20053;-77
2021/06/13 19:59:29;;;;;;;4.53;2.33;;;;;;;23.82;30.78;92947.34;4999676;28;20376;-77
2021/06/13 20:01:54;;;;;;;4.15;2.70;;;;;;;23.82;30.98;92958.03;5003487;28;20055;-77
2021/06/13 20:04:20;;;;;;;5.05;2.67;;;;;;;23.80;30.87;92958.41;4970077;28;20088;-77
2021/06/13 20:06:46;;;;;;;5.88;2.42;;;;;;;23.77;30.87;92961.00;4985135;28;20492;-77
2021/06/13 20:09:12;;;;;;;6.63;2.58;;;;;;;23.72;30.96;92959.38;4954581;28;20038;-77
2021/06/13 20:11:37;;;;;;;10.23;2.60;;;;;;;23.70;30.90;92962.41;5056052;28;20442;-77
2021/06/13 20:14:03;;;;;;;4.32;2.40;;;;;;;23.62;31.25;92965.28;4983683;28;20050;-77
2021/06/13 20:16:29;;;;;;;5.20;2.42;;;;;;;23.54;30.77;92959.06;4975765;28;20051;-78
2021/06/13 20:18:55;;;;;;;5.50;2.72;;;;;;;23.51;30.92;92972.34;4985509;28;20112;-77
2021/06/13 20:21:22;;;;;;;3.85;2.17;;;;;;;23.48;30.80;92957.81;4965804;28;20072;-77
2021/06/13 20:23:47;;;;;;;8.20;2.65;;;;;;;23.43;30.95;92966.88;4978496;28;20042;-77
2021/06/13 20:26:13;;;;;;;5.30;2.85;;;;;;;23.40;30.64;92959.59;4980377;28;20496;-77
2021/06/13 20:28:39;;;;;;;5.88;3.08;;;;;;;23.38;30.87;92967.19;4984439;28;20049;-77
2021/06/13 20:31:04;;;;;;;4.80;2.60;;;;;;;23.34;31.17;92966.34;4965870;28;20043;-77
2021/06/13 20:33:30;;;;;;;3.90;2.30;;;;;;;23.29;30.75;92961.31;4966559;28;20447;-77
2021/06/13 20:36:00;;;;;;;4.13;2.45;;;;;;;23.27;31.32;92961.66;4992956;28;20053;-77
2021/06/13 20:38:31;;;;;;;6.05;2.67;;;;;;;23.23;30.73;92963.47;4988053;28;20369;-77
2021/06/13 20:40:57;;;;;;;8.65;2.65;;;;;;;23.27;30.59;92964.31;4987634;28;20054;-77
2021/06/13 20:43:24;;;;;;;5.88;2.70;;;;;;;23.18;30.99;92963.78;4973784;28;20073;-77
2021/06/13 20:45:49;;;;;;;6.30;2.90;;;;;;;23.15;30.90;92963.72;4969377;28;20058;-77
2021/06/13 20:48:15;;;;;;;6.00;2.50;;;;;;;23.15;30.95;92967.16;4968928;28;20059;-77
2021/06/13 20:50:43;;;;;;;4.93;2.55;;;;;;;23.13;30.95;92965.97;4980878;28;20046;-77
2021/06/13 20:53:09;;;;;;;5.35;2.70;;;;;;;23.12;30.81;92977.75;4965654;28;20046;-77
2021/06/13 20:55:35;;;;;;;6.10;2.67;;;;;;;23.07;30.74;92974.25;4985511;28;20099;-77
2021/06/13 20:58:01;;;;;;;7.50;2.45;;;;;;;23.01;31.05;92978.34;4970015;28;20043;-77
2021/06/13 21:00:55;;;;;;;4.45;2.50;;;;;;;22.74;31.01;92939.25;5003978;22;20038;-92
2021/06/13 21:03:59;;;;;;;;;;;;;;;;;;;;;
2021/06/13 21:06:51;;;;;;;;;;;;;;;;;;;;;
2021/06/13 21:09:34;;;;;;;;;;;;;;;;;;;;;
2021/06/13 21:12:25;;;;;;;5.40;2.85;;;;;;;22.52;31.27;92938.81;4956963;28;20149;-91
2021/06/13 21:15:44;;;;;;;3.97;2.45;;;;;;;22.58;31.07;92941.97;4956671;28;20066;-93
2021/06/13 21:19:14;;;;;;;6.30;2.50;;;;;;;22.53;30.78;92945.69;4970403;28;20057;-91
2021/06/13 21:21:58;;;;;;;6.10;2.67;;;;;;;22.44;30.63;92937.13;4948677;28;20075;-93
2021/06/13 21:25:05;;;;;;;5.40;2.78;;;;;;;22.67;30.51;92969.22;4952413;28;20113;-92
2021/06/13 21:28:11;;;;;;;6.35;2.38;;;;;;;22.45;30.87;92944.78;4954895;28;20124;-92
2021/06/13 21:30:56;;;;;;;5.93;2.80;;;;;;;22.35;30.88;92944.53;4967068;28;20104;-91
2021/06/13 21:34:10;;;;;;;4.32;2.30;;;;;;;22.40;30.75;92962.94;4954972;28;20061;-91
2021/06/13 21:36:57;;;;;;;5.13;2.50;;;;;;;22.53;30.60;92977.69;4953695;28;20158;-92
2021/06/13 21:40:04;;;;;;;7.03;2.50;;;;;;;22.48;30.69;92971.88;4965936;28;20126;-93
2021/06/13 21:42:54;;;;;;;5.13;2.60;;;;;;;22.54;30.16;93003.28;4936855;28;20059;-91
2021/06/13 21:45:46;;;;;;;6.60;2.63;;;;;;;22.40;30.55;93006.41;4957076;28;20046;-91
2021/06/13 21:49:02;;;;;;;;;;;;;;;;;;;;;
2021/06/13 21:52:21;;;;;;;3.95;2.30;;;;;;;22.22;29.91;92983.88;4971840;28;20050;-90
2021/06/13 21:55:37;;;;;;;4.13;2.38;;;;;;;22.09;29.85;92980.53;4959399;28;20065;-90
2021/06/13 21:58:19;;;;;;;7.15;2.83;;;;;;;22.27;29.73;93002.28;4975645;28;20146;-90
2021/06/13 22:01:13;;;;;;;5.00;2.28;;;;;;;22.18;29.70;92994.44;4974453;28;20062;-91
2021/06/13 22:04:00;;;;;;;5.05;2.30;;;;;;;22.05;29.61;92982.31;4973347;28;20066;-90
2021/06/13 22:06:40;;;;;;;4.00;2.47;;;;;;;22.05;29.87;92995.66;4943282;28;20054;-91
2021/06/13 22:12:23;;;;;;;5.93;2.72;;;;;;;21.97;29.91;92983.28;4979014;28;20088;-91
2021/06/13 22:15:05;;;;;;;7.07;2.55;;;;;;;21.88;30.17;92966.69;4958919;28;20062;-90
2021/06/13 22:18:04;;;;;;;4.38;2.58;;;;;;;22.22;29.58;93031.88;4972771;28;20129;-90
2021/06/13 22:24:35;;;;;;;;;;;;;;;;;;;;;
2021/06/13 22:27:20;;;;;;;3.38;2.15;;;;;;;22.21;29.84;93041.75;4974274;28;20148;-91
2021/06/13 22:33:11;;;;;;;4.18;2.25;;;;;;;21.92;29.24;92992.31;4972990;28;20051;-90
2021/06/13 22:36:11;;;;;;;4.97;2.30;;;;;;;21.98;28.79;93017.59;4972207;28;20049;-92
2021/06/13 22:39:35;;;;;;;6.05;2.13;;;;;;;21.94;28.90;93011.38;4976636;28;20046;-90
2021/06/13 22:42:33;;;;;;;9.55;2.30;;;;;;;21.68;29.16;92982.56;4974060;28;20046;-91
2021/06/13 22:45:38;;;;;;;;;;;;;;;;;;;;;
2021/06/13 22:48:28;;;;;;;;;;;;;;;;;;;;;
2021/06/13 22:55:02;;;;;;;;;;;;;;;;;;;;;
2021/06/13 23:01:19;;;;;;;;;;;;;;;;;;;;;
2021/06/13 23:04:28;;;;;;;4.00;2.08;;;;;;;21.45;28.63;92994.94;4958522;28;20050;-90
2021/06/13 23:07:52;;;;;;;3.95;2.13;;;;;;;21.39;28.56;92994.38;4956922;28;20073;-91
2021/06/13 23:10:44;;;;;;;;;;;;;;;;;;;;;
2021/06/13 23:13:47;;;;;;;4.75;2.20;;;;;;;21.31;28.70;92998.75;4959781;28;20407;-91
2021/06/13 23:17:07;;;;;;;4.10;2.30;;;;;;;21.45;29.28;93021.56;4969594;28;20491;-91
2021/06/13 23:20:44;;;;;;;4.88;2.20;;;;;;;21.26;28.80;92996.34;4960346;28;20055;-90
2021/06/13 23:23:48;;;;;;;3.80;2.30;;;;;;;21.31;29.09;93012.06;4964116;28;20061;-92
2021/06/13 23:27:03;;;;;;;;;;;;;;;;;;;;;
2021/06/13 23:30:03;;;;;;;4.43;2.20;;;;;;;21.18;29.16;93011.31;5007279;28;20042;-91
2021/06/13 23:35:48;;;;;;;7.53;2.10;;;;;;;21.07;28.63;92998.84;4968996;28;20537;-91
2021/06/13 23:38:32;;;;;;;4.13;2.40;;;;;;;21.06;28.72;92994.66;4956864;28;20035;-91
2021/06/13 23:41:36;;;;;;;9.48;2.30;;;;;;;20.97;29.37;92992.91;4945364;28;20081;-93
2021/06/13 23:44:34;;;;;;;4.60;2.20;;;;;;;20.96;29.55;92994.03;4943280;28;20395;-90
2021/06/13 23:47:23;;;;;;;;;;;;;;;;;;;;;
2021/06/13 23:50:32;;;;;;;3.90;2.20;;;;;;;20.76;30.06;92985.09;4972518;28;20539;-90
2021/06/13 23:53:48;;;;;;;3.70;2.00;;;;;;;20.74;29.92;92995.31;4971939;28;20407;-90
2021/06/13 23:56:55;;;;;;;4.40;2.20;;;;;;;20.95;29.86;93036.94;4938403;28;20077;-91
2021/06/13 23:59:41;;;;;;;4.13;2.00;;;;;;;20.63;30.22;93001.44;4936265;28;20065;-91
